createdAt,value
2017-12-30T00:00:20.758Z,0.00
2017-12-30T00:02:48.921Z,0.02
2017-12-30T00:05:17.119Z,0.04
2017-12-30T00:07:45.296Z,0.08
2017-12-30T00:10:13.470Z,0.12
2017-12-30T00:12:41.649Z,0.17
2017-12-30T00:15:09.866Z,0.20
2017-12-30T00:17:38.839Z,0.29
2017-12-30T00:20:09.281Z,0.37
2017-12-30T00:22:37.504Z,0.35
2017-12-30T00:25:05.676Z,0.28
2017-12-30T00:27:33.881Z,0.32
2017-12-30T00:30:02.064Z,0.33
2017-12-30T00:32:30.257Z,0.28
2017-12-30T00:34:58.440Z,0.29
2017-12-30T00:37:26.622Z,0.33
2017-12-30T00:39:54.812Z,0.37
2017-12-30T00:42:22.989Z,0.33
2017-12-30T00:44:51.158Z,0.33
2017-12-30T00:47:19.337Z,0.30
2017-12-30T00:49:47.541Z,0.33
2017-12-30T00:52:15.737Z,0.33
2017-12-30T00:54:45.647Z,0.26
2017-12-30T00:57:13.847Z,0.28
2017-12-30T00:59:42.035Z,0.24
2017-12-30T01:02:10.692Z,0.20
2017-12-30T01:04:41.162Z,0.20
2017-12-30T01:07:09.366Z,0.25
2017-12-30T01:09:37.542Z,0.30
2017-12-30T01:12:05.714Z,0.27
2017-12-30T01:14:33.921Z,0.34
2017-12-30T01:17:02.121Z,0.32
2017-12-30T01:19:30.318Z,0.31
2017-12-30T01:21:58.489Z,0.29
2017-12-30T01:24:26.704Z,0.29
2017-12-30T01:26:54.886Z,0.32
2017-12-30T01:29:23.092Z,0.33
2017-12-30T01:31:51.266Z,0.30
2017-12-30T01:34:19.453Z,0.30
2017-12-30T01:36:48.529Z,0.33
2017-12-30T01:39:16.722Z,0.21
2017-12-30T01:41:44.894Z,0.19
2017-12-30T01:44:13.090Z,0.19
2017-12-30T01:46:41.251Z,0.16
2017-12-30T01:49:09.423Z,0.15
2017-12-30T01:51:37.607Z,0.13
2017-12-30T01:54:05.791Z,0.16
2017-12-30T01:56:34.000Z,0.11
2017-12-30T01:59:02.186Z,0.13
2017-12-30T02:01:31.153Z,0.08
2017-12-30T02:03:59.328Z,0.10
2017-12-30T02:06:27.520Z,0.08
2017-12-30T02:08:55.706Z,0.10
2017-12-30T02:11:24.662Z,0.01
2017-12-30T02:13:52.865Z,-0.04
2017-12-30T02:16:21.039Z,-0.04
2017-12-30T02:18:49.236Z,-0.07
2017-12-30T02:21:18.185Z,-0.12
2017-12-30T02:23:46.374Z,-0.11
2017-12-30T02:26:14.561Z,-0.05
2017-12-30T02:28:43.498Z,-0.09
2017-12-30T02:31:11.680Z,-0.10
2017-12-30T02:33:41.635Z,-0.10
2017-12-30T02:36:10.702Z,-0.04
2017-12-30T02:38:38.891Z,-0.12
2017-12-30T02:41:07.525Z,-0.19
2017-12-30T02:43:35.710Z,-0.23
2017-12-30T02:46:03.874Z,-0.27
2017-12-30T02:48:32.050Z,-0.34
2017-12-30T02:51:00.948Z,-0.38
2017-12-30T02:53:29.204Z,-0.41
2017-12-30T02:55:58.531Z,-0.47
2017-12-30T02:58:28.664Z,-0.47
2017-12-30T03:00:56.968Z,-0.48
2017-12-30T03:03:25.149Z,-0.47
2017-12-30T03:05:53.342Z,-0.49
2017-12-30T03:08:22.282Z,-0.51
2017-12-30T03:10:50.465Z,-0.52
2017-12-30T03:13:18.784Z,-0.54
2017-12-30T03:15:46.990Z,-0.55
2017-12-30T03:18:16.126Z,-0.55
2017-12-30T03:20:44.593Z,-0.59
2017-12-30T03:23:12.790Z,-0.60
2017-12-30T03:25:40.978Z,-0.61
2017-12-30T03:28:10.022Z,-0.60
2017-12-30T03:30:38.214Z,-0.63
2017-12-30T03:33:06.463Z,-0.61
2017-12-30T03:35:34.653Z,-0.57
2017-12-30T03:38:02.836Z,-0.52
2017-12-30T03:40:31.031Z,-0.53
2017-12-30T03:42:59.209Z,-0.56
2017-12-30T03:45:27.385Z,-0.56
2017-12-30T03:47:55.587Z,-0.54
2017-12-30T03:50:24.549Z,-0.51
2017-12-30T03:52:52.745Z,-0.53
2017-12-30T03:55:20.937Z,-0.54
2017-12-30T03:57:49.882Z,-0.56
2017-12-30T04:00:18.087Z,-0.58
2017-12-30T04:03:03.642Z,-0.60
2017-12-30T04:05:31.814Z,-0.61
2017-12-30T04:08:06.570Z,-0.65
2017-12-30T04:10:34.758Z,-0.66
2017-12-30T04:13:02.936Z,-0.70
2017-12-30T04:15:31.881Z,-0.59
2017-12-30T04:18:00.063Z,-0.64
2017-12-30T04:20:28.269Z,-0.70
2017-12-30T04:22:56.451Z,-0.74
2017-12-30T04:25:24.690Z,-0.81
2017-12-30T04:27:58.097Z,-0.82
2017-12-30T04:30:26.354Z,-0.85
2017-12-30T04:32:54.540Z,-0.89
2017-12-30T04:35:22.797Z,-0.85
2017-12-30T04:37:50.984Z,-0.85
2017-12-30T04:40:19.176Z,-0.92
2017-12-30T04:42:49.041Z,-1.03
2017-12-30T04:45:17.252Z,-1.04
2017-12-30T04:47:45.717Z,-1.09
2017-12-30T04:50:14.382Z,-1.13
2017-12-30T04:52:42.572Z,-1.15
2017-12-30T04:55:27.540Z,-1.16
2017-12-30T04:57:55.745Z,-1.18
2017-12-30T05:00:24.018Z,-1.19
2017-12-30T05:02:54.542Z,-1.18
2017-12-30T05:05:23.263Z,-1.22
2017-12-30T05:07:51.444Z,-1.22
2017-12-30T05:10:20.389Z,-1.20
2017-12-30T05:12:48.578Z,-1.18
2017-12-30T05:15:17.713Z,-1.19
2017-12-30T05:17:47.384Z,-1.19
2017-12-30T05:20:15.570Z,-1.24
2017-12-30T05:22:43.762Z,-1.26
2017-12-30T05:25:11.935Z,-1.32
2017-12-30T05:27:40.120Z,-1.33
2017-12-30T05:30:09.113Z,-1.34
2017-12-30T05:32:38.060Z,-1.36
2017-12-30T05:35:06.238Z,-1.42
2017-12-30T05:37:35.182Z,-1.41
2017-12-30T05:40:04.129Z,-1.46
2017-12-30T05:42:32.599Z,-1.50
2017-12-30T05:45:01.553Z,-1.56
2017-12-30T06:00:24.814Z,-1.74
2017-12-30T06:02:53.021Z,-1.73
2017-12-30T06:05:21.215Z,-1.71
2017-12-30T06:07:49.396Z,-1.66
2017-12-30T06:10:17.574Z,-1.66
2017-12-30T06:12:45.753Z,-1.65
2017-12-30T06:15:13.924Z,-1.68
2017-12-30T06:17:42.131Z,-1.69
2017-12-30T06:20:10.343Z,-1.67
2017-12-30T06:22:38.511Z,-1.71
2017-12-30T06:25:06.683Z,-1.70
2017-12-30T06:27:34.855Z,-1.69
2017-12-30T06:30:03.058Z,-1.72
2017-12-30T06:32:31.229Z,-1.74
2017-12-30T06:34:59.408Z,-1.77
2017-12-30T06:37:28.355Z,-1.78
2017-12-30T06:39:56.545Z,-1.79
2017-12-30T06:42:26.994Z,-1.83
2017-12-30T06:44:55.212Z,-1.80
2017-12-30T06:47:23.385Z,-1.78
2017-12-30T06:49:51.552Z,-1.79
2017-12-30T06:52:19.726Z,-1.78
2017-12-30T06:54:47.902Z,-1.75
2017-12-30T06:57:16.118Z,-1.71
2017-12-30T06:59:44.405Z,-1.67
2017-12-30T07:02:12.575Z,-1.63
2017-12-30T07:04:40.746Z,-1.50
2017-12-30T07:07:08.946Z,-1.54
2017-12-30T07:09:37.118Z,-1.43
2017-12-30T07:12:05.323Z,-1.39
2017-12-30T07:14:33.514Z,-1.37
2017-12-30T07:17:01.739Z,-1.36
2017-12-30T07:19:29.893Z,-1.33
2017-12-30T07:21:58.079Z,-1.25
2017-12-30T07:24:26.297Z,-1.26
2017-12-30T07:26:55.082Z,-1.21
2017-12-30T07:29:24.064Z,-1.10
2017-12-30T07:31:53.058Z,-1.03
2017-12-30T07:34:22.002Z,-1.03
2017-12-30T07:36:50.176Z,-1.04
2017-12-30T07:39:18.342Z,-1.02
2017-12-30T07:41:46.511Z,-0.97
2017-12-30T07:44:14.758Z,-0.93
2017-12-30T07:46:46.740Z,-0.95
2017-12-30T07:49:15.070Z,-0.97
2017-12-30T07:51:43.436Z,-0.91
2017-12-30T07:54:11.680Z,-0.59
2017-12-30T07:56:39.859Z,-0.52
2017-12-30T07:59:08.043Z,-0.52
2017-12-30T08:01:36.238Z,-0.51
2017-12-30T08:04:04.414Z,-0.53
2017-12-30T08:06:32.594Z,-0.54
2017-12-30T08:09:02.562Z,-0.51
2017-12-30T08:11:30.754Z,-0.49
2017-12-30T08:13:58.933Z,-0.38
2017-12-30T08:16:27.153Z,-0.36
2017-12-30T08:18:57.321Z,-0.26
2017-12-30T08:21:41.145Z,-0.28
2017-12-30T08:24:11.806Z,-0.28
2017-12-30T08:26:54.938Z,-0.23
2017-12-30T08:29:28.146Z,-0.15
2017-12-30T08:31:57.093Z,-0.10
2017-12-30T08:34:25.305Z,-0.06
2017-12-30T08:36:53.492Z,0.00
2017-12-30T08:39:22.434Z,0.12
2017-12-30T08:41:50.615Z,0.27
2017-12-30T08:44:18.786Z,0.30
2017-12-30T08:46:46.957Z,0.33
2017-12-30T08:49:16.359Z,0.37
2017-12-30T08:51:58.919Z,0.45
2017-12-30T08:54:27.976Z,0.52
2017-12-30T08:56:56.165Z,0.51
2017-12-30T08:59:32.647Z,0.59
2017-12-30T09:02:01.514Z,0.65
2017-12-30T09:04:29.743Z,0.74
2017-12-30T09:06:58.693Z,0.82
2017-12-30T09:09:26.982Z,0.95
2017-12-30T09:11:55.203Z,1.12
2017-12-30T09:14:23.380Z,1.22
2017-12-30T09:16:51.591Z,1.42
2017-12-30T09:19:19.820Z,1.56
2017-12-30T09:21:48.001Z,1.74
2017-12-30T09:24:16.214Z,1.94
2017-12-30T09:26:44.430Z,2.11
2017-12-30T09:29:13.449Z,2.40
2017-12-30T09:31:41.618Z,2.72
2017-12-30T09:34:09.817Z,3.03
2017-12-30T09:36:38.002Z,3.29
2017-12-30T09:39:06.227Z,3.53
2017-12-30T09:41:35.172Z,3.67
2017-12-30T09:44:03.348Z,3.52
2017-12-30T09:46:31.602Z,3.63
2017-12-30T09:48:59.790Z,3.70
2017-12-30T09:51:27.966Z,3.74
2017-12-30T09:53:56.117Z,3.83
2017-12-30T09:56:24.284Z,4.01
2017-12-30T09:58:52.459Z,4.31
2017-12-30T10:01:20.625Z,4.55
2017-12-30T10:03:49.573Z,4.72
2017-12-30T10:06:17.810Z,5.24
2017-12-30T10:08:46.029Z,5.85
2017-12-30T10:11:14.212Z,6.21
2017-12-30T10:13:42.400Z,6.06
2017-12-30T10:16:11.369Z,6.06
2017-12-30T10:18:39.541Z,6.41
2017-12-30T10:21:07.807Z,6.72
2017-12-30T10:23:36.126Z,7.03
2017-12-30T10:26:05.063Z,7.13
2017-12-30T10:28:33.240Z,6.85
2017-12-30T10:31:01.436Z,6.54
2017-12-30T10:33:29.684Z,6.18
2017-12-30T10:35:57.973Z,5.87
2017-12-30T10:38:26.156Z,5.78
2017-12-30T10:40:54.366Z,5.95
2017-12-30T10:43:22.553Z,6.08
2017-12-30T10:45:51.504Z,5.81
2017-12-30T10:48:19.671Z,5.84
2017-12-30T10:50:48.102Z,5.92
2017-12-30T10:53:17.052Z,5.82
2017-12-30T10:55:45.227Z,6.02
2017-12-30T10:58:13.395Z,5.99
2017-12-30T11:00:47.001Z,5.90
2017-12-30T11:03:15.179Z,5.94
2017-12-30T11:05:43.397Z,5.95
2017-12-30T11:08:12.359Z,5.72
2017-12-30T11:10:40.549Z,5.69
2017-12-30T11:13:08.721Z,5.83
2017-12-30T11:15:36.917Z,6.77
2017-12-30T11:18:05.101Z,7.83
2017-12-30T11:20:33.302Z,8.51
2017-12-30T11:23:01.493Z,9.19
2017-12-30T11:25:29.726Z,9.48
2017-12-30T11:27:57.895Z,9.20
2017-12-30T11:30:26.832Z,8.65
2017-12-30T11:32:55.044Z,7.96
2017-12-30T11:35:23.227Z,7.62
2017-12-30T11:37:52.209Z,7.33
2017-12-30T11:40:20.373Z,6.78
2017-12-30T11:42:48.578Z,6.35
2017-12-30T11:45:17.521Z,6.03
2017-12-30T11:47:45.682Z,6.07
2017-12-30T11:50:13.890Z,5.99
2017-12-30T11:52:42.058Z,6.02
2017-12-30T11:55:10.234Z,5.96
2017-12-30T11:57:38.440Z,5.88
2017-12-30T12:00:07.383Z,5.93
2017-12-30T12:02:35.593Z,6.38
2017-12-30T12:05:03.777Z,6.97
2017-12-30T12:07:32.739Z,7.64
2017-12-30T12:10:00.909Z,8.04
2017-12-30T12:12:29.114Z,7.95
2017-12-30T12:14:58.057Z,8.11
2017-12-30T12:17:26.234Z,8.09
2017-12-30T12:19:54.431Z,7.85
2017-12-30T12:22:22.639Z,7.28
2017-12-30T12:24:50.835Z,6.84
2017-12-30T12:27:19.006Z,6.54
2017-12-30T12:29:47.201Z,6.37
2017-12-30T12:32:15.359Z,6.11
2017-12-30T12:34:43.545Z,6.11
2017-12-30T12:37:11.739Z,6.08
2017-12-30T12:39:39.931Z,5.99
2017-12-30T12:42:08.101Z,5.95
2017-12-30T12:44:36.269Z,5.89
2017-12-30T12:47:04.470Z,5.83
2017-12-30T12:49:32.773Z,5.75
2017-12-30T12:52:01.726Z,5.72
2017-12-30T12:54:29.922Z,5.61
2017-12-30T12:56:58.856Z,5.51
2017-12-30T12:59:27.047Z,5.53
2017-12-30T13:01:55.230Z,5.47
2017-12-30T13:04:23.404Z,5.45
2017-12-30T13:06:51.571Z,5.37
2017-12-30T13:09:19.742Z,5.39
2017-12-30T13:11:47.902Z,5.28
2017-12-30T13:14:16.066Z,5.15
2017-12-30T13:16:49.975Z,5.01
2017-12-30T13:19:18.965Z,4.76
2017-12-30T13:21:50.653Z,4.32
2017-12-30T13:24:19.055Z,4.18
2017-12-30T13:26:52.400Z,3.99
2017-12-30T13:29:20.765Z,3.84
2017-12-30T13:31:53.749Z,3.99
2017-12-30T13:34:24.945Z,3.92
2017-12-30T13:36:54.967Z,3.95
2017-12-30T13:39:25.682Z,3.92
2017-12-30T13:41:57.455Z,3.61
2017-12-30T13:44:30.348Z,3.60
2017-12-30T13:46:58.788Z,3.55
2017-12-30T13:49:31.901Z,3.64
2017-12-30T13:52:00.486Z,3.63
2017-12-30T13:54:30.909Z,3.72
2017-12-30T13:57:00.152Z,3.49
2017-12-30T13:59:31.499Z,3.53
2017-12-30T14:01:59.695Z,3.65
2017-12-30T14:04:34.203Z,3.64
2017-12-30T14:07:06.448Z,3.68
2017-12-30T14:09:34.842Z,3.66
2017-12-30T14:12:03.042Z,3.67
2017-12-30T14:14:32.028Z,3.63
2017-12-30T14:17:00.933Z,3.67
2017-12-30T14:19:29.900Z,3.62
2017-12-30T14:21:58.062Z,3.60
2017-12-30T14:24:26.229Z,3.57
2017-12-30T14:26:55.194Z,3.58
2017-12-30T14:29:23.401Z,3.58
2017-12-30T14:31:51.628Z,3.54
2017-12-30T14:34:19.808Z,3.54
2017-12-30T14:36:47.991Z,3.55
2017-12-30T14:39:16.166Z,3.56
2017-12-30T14:41:44.329Z,3.58
2017-12-30T14:44:12.512Z,3.58
2017-12-30T14:46:40.691Z,3.57
2017-12-30T14:49:08.854Z,3.59
2017-12-30T14:51:37.060Z,3.60
2017-12-30T14:54:05.242Z,3.55
2017-12-30T14:56:34.171Z,3.56
2017-12-30T14:59:03.124Z,3.54
2017-12-30T15:01:31.301Z,3.55
2017-12-30T15:03:59.461Z,3.51
2017-12-30T15:06:27.729Z,3.67
2017-12-30T15:08:55.903Z,3.56
2017-12-30T15:11:24.073Z,3.61
2017-12-30T15:13:52.238Z,3.53
2017-12-30T15:16:20.405Z,3.38
2017-12-30T15:18:48.594Z,3.30
2017-12-30T15:21:16.758Z,3.49
2017-12-30T15:23:44.918Z,3.64
2017-12-30T15:26:13.859Z,3.47
2017-12-30T15:28:42.020Z,3.51
2017-12-30T15:31:10.196Z,3.46
2017-12-30T15:33:38.385Z,3.55
2017-12-30T15:36:06.557Z,3.42
2017-12-30T15:38:34.732Z,3.39
2017-12-30T15:41:02.899Z,3.37
2017-12-30T15:43:31.060Z,3.33
2017-12-30T15:45:59.247Z,3.36
2017-12-30T15:48:27.445Z,3.35
2017-12-30T15:50:55.604Z,3.37
2017-12-30T15:53:23.764Z,3.41
2017-12-30T15:55:51.930Z,3.41
2017-12-30T15:58:20.114Z,3.40
2017-12-30T16:00:48.288Z,3.41
2017-12-30T16:03:16.472Z,3.40
2017-12-30T16:05:44.643Z,3.41
2017-12-30T16:08:12.800Z,3.36
2017-12-30T16:10:40.963Z,3.33
2017-12-30T16:13:09.160Z,3.41
2017-12-30T16:15:37.358Z,3.39
2017-12-30T16:18:05.525Z,3.35
2017-12-30T16:20:33.692Z,3.36
2017-12-30T16:23:01.867Z,3.43
2017-12-30T16:25:30.027Z,3.34
2017-12-30T16:27:58.200Z,3.33
2017-12-30T16:30:26.355Z,3.32
2017-12-30T16:32:54.511Z,3.35
2017-12-30T16:35:23.505Z,3.28
2017-12-30T16:37:52.440Z,3.31
2017-12-30T16:40:20.597Z,3.27
2017-12-30T16:42:48.770Z,3.16
2017-12-30T16:45:16.948Z,3.15
2017-12-30T16:47:45.122Z,3.17
2017-12-30T16:50:13.282Z,3.14
2017-12-30T16:52:42.203Z,3.11
2017-12-30T16:55:10.365Z,3.06
2017-12-30T16:57:38.551Z,3.00
2017-12-30T17:00:06.709Z,3.00
2017-12-30T17:02:34.873Z,2.97
2017-12-30T17:05:03.799Z,2.95
2017-12-30T17:07:31.989Z,2.93
2017-12-30T17:10:00.155Z,2.90
2017-12-30T17:12:28.321Z,2.86
2017-12-30T17:14:56.524Z,2.82
2017-12-30T17:17:24.727Z,2.84
2017-12-30T17:19:53.667Z,2.78
2017-12-30T17:22:21.843Z,2.74
2017-12-30T17:24:50.017Z,2.71
2017-12-30T17:27:18.196Z,2.68
2017-12-30T17:29:46.375Z,2.63
2017-12-30T17:32:14.537Z,2.55
2017-12-30T17:34:42.697Z,2.58
2017-12-30T17:37:10.866Z,2.57
2017-12-30T17:39:39.092Z,2.53
2017-12-30T17:42:07.270Z,2.51
2017-12-30T17:44:35.439Z,2.49
2017-12-30T17:47:03.620Z,2.46
2017-12-30T17:49:31.779Z,2.44
2017-12-30T17:51:59.949Z,2.43
2017-12-30T17:54:28.158Z,2.45
2017-12-30T17:56:57.107Z,2.41
2017-12-30T17:59:25.275Z,2.37
2017-12-30T18:01:53.498Z,2.36
2017-12-30T18:04:22.435Z,2.40
2017-12-30T18:06:50.623Z,2.35
2017-12-30T18:09:18.850Z,2.40
2017-12-30T18:11:47.796Z,2.42
2017-12-30T18:14:15.978Z,2.51
2017-12-30T18:16:47.448Z,2.40
2017-12-30T18:19:15.654Z,2.32
2017-12-30T18:21:44.609Z,2.28
2017-12-30T18:24:12.847Z,2.31
2017-12-30T18:26:41.050Z,2.32
2017-12-30T18:29:09.825Z,2.30
2017-12-30T18:31:38.034Z,2.24
2017-12-30T18:34:06.248Z,2.21
2017-12-30T18:36:34.468Z,2.19
2017-12-30T18:39:02.663Z,2.21
2017-12-30T18:41:30.890Z,2.21
2017-12-30T18:43:59.080Z,2.15
2017-12-30T18:46:28.029Z,2.18
2017-12-30T18:48:57.044Z,2.20
2017-12-30T18:51:25.234Z,2.16
2017-12-30T18:53:53.410Z,2.20
2017-12-30T18:56:21.610Z,2.25
2017-12-30T18:58:49.818Z,2.26
2017-12-30T19:01:18.767Z,2.16
2017-12-30T19:03:46.961Z,2.20
2017-12-30T19:06:15.171Z,2.31
2017-12-30T19:08:43.358Z,2.27
2017-12-30T19:11:11.543Z,2.27
2017-12-30T19:13:39.733Z,2.27
2017-12-30T19:16:07.907Z,2.26
2017-12-30T19:18:36.113Z,2.28
2017-12-30T19:21:04.315Z,2.28
2017-12-30T19:23:33.325Z,2.27
2017-12-30T19:26:01.507Z,2.25
2017-12-30T19:28:29.711Z,2.24
2017-12-30T19:30:57.901Z,2.22
2017-12-30T19:33:26.116Z,2.23
2017-12-30T19:35:54.308Z,2.22
2017-12-30T19:38:22.499Z,2.20
2017-12-30T19:40:50.662Z,2.19
2017-12-30T19:43:18.852Z,2.14
2017-12-30T19:45:47.084Z,2.19
2017-12-30T19:48:16.016Z,2.18
2017-12-30T19:50:44.181Z,2.14
2017-12-30T19:53:12.412Z,2.17
2017-12-30T19:55:40.606Z,2.25
2017-12-30T19:58:08.783Z,2.18
2017-12-30T20:00:37.753Z,2.21
2017-12-30T20:03:05.928Z,2.17
2017-12-30T20:05:34.121Z,2.12
2017-12-30T20:08:02.465Z,2.04
2017-12-30T20:10:30.654Z,2.01
2017-12-30T20:12:58.818Z,2.12
2017-12-30T20:15:27.013Z,2.10
2017-12-30T20:17:55.185Z,2.05
2017-12-30T20:20:23.355Z,2.04
2017-12-30T20:22:51.530Z,1.96
2017-12-30T20:25:19.696Z,1.87
2017-12-30T20:27:47.918Z,1.79
2017-12-30T20:30:17.077Z,1.73
2017-12-30T20:32:45.536Z,1.79
2017-12-30T20:35:13.954Z,1.70
2017-12-30T20:37:42.173Z,1.61
2017-12-30T20:40:10.471Z,1.52
2017-12-30T20:42:38.650Z,1.48
2017-12-30T20:45:07.012Z,1.43
2017-12-30T20:47:35.384Z,1.36
2017-12-30T20:50:03.712Z,1.33
2017-12-30T20:52:31.912Z,1.34
2017-12-30T20:55:00.888Z,1.32
2017-12-30T20:57:29.139Z,1.32
2017-12-30T20:59:57.343Z,1.30
2017-12-30T21:02:25.544Z,1.24
2017-12-30T21:04:53.788Z,1.22
2017-12-30T21:07:21.967Z,1.18
2017-12-30T21:09:50.141Z,1.17
2017-12-30T21:12:18.324Z,1.25
2017-12-30T21:14:46.486Z,1.21
2017-12-30T21:17:14.693Z,1.18
2017-12-30T21:19:42.871Z,1.17
2017-12-30T21:22:11.884Z,1.13
2017-12-30T21:24:42.056Z,1.10
2017-12-30T21:27:25.463Z,1.09
2017-12-30T21:29:53.879Z,1.07
2017-12-30T21:32:22.240Z,1.01
2017-12-30T21:34:51.262Z,0.99
2017-12-30T21:37:19.875Z,0.97
2017-12-30T21:39:48.868Z,0.94
2017-12-30T21:42:17.884Z,0.92
2017-12-30T21:44:46.118Z,0.89
2017-12-30T21:47:14.322Z,0.89
2017-12-30T21:49:43.260Z,0.93
2017-12-30T21:52:11.436Z,0.99
2017-12-30T21:54:39.614Z,0.91
2017-12-30T21:57:08.548Z,0.94
2017-12-30T21:59:37.486Z,0.89
2017-12-30T22:02:05.646Z,0.85
2017-12-30T22:04:33.832Z,0.80
2017-12-30T22:07:02.006Z,0.76
2017-12-30T22:09:30.169Z,0.71
2017-12-30T22:11:58.335Z,0.85
2017-12-30T22:14:26.507Z,0.80
2017-12-30T22:16:54.678Z,0.71
2017-12-30T22:19:23.633Z,0.64
2017-12-30T22:21:51.807Z,0.63
2017-12-30T22:24:19.975Z,0.62
2017-12-30T22:26:48.159Z,0.62
2017-12-30T22:29:16.342Z,0.59
2017-12-30T22:31:44.497Z,0.67
2017-12-30T22:34:12.665Z,0.63
2017-12-30T22:36:40.865Z,0.58
2017-12-30T22:39:09.043Z,0.52
2017-12-30T22:41:37.202Z,0.53
2017-12-30T22:44:05.382Z,0.50
2017-12-30T22:46:34.331Z,0.46
2017-12-30T22:49:02.527Z,0.42
2017-12-30T22:51:30.697Z,0.49
2017-12-30T22:53:58.865Z,0.48
2017-12-30T22:56:27.062Z,0.47
2017-12-30T22:58:55.219Z,0.48
2017-12-30T23:01:23.382Z,0.49
2017-12-30T23:03:51.550Z,0.47
2017-12-30T23:06:19.714Z,0.48
2017-12-30T23:08:47.915Z,0.51
2017-12-30T23:11:16.153Z,0.55
2017-12-30T23:13:45.089Z,0.67
2017-12-30T23:16:13.294Z,0.78
2017-12-30T23:18:41.457Z,0.80
2017-12-30T23:21:09.621Z,0.83
2017-12-30T23:23:37.791Z,0.90
2017-12-30T23:26:06.732Z,0.95
2017-12-30T23:28:35.689Z,0.98
2017-12-30T23:31:03.851Z,1.02
2017-12-30T23:33:32.015Z,1.06
2017-12-30T23:36:00.178Z,1.07
2017-12-30T23:38:28.340Z,1.05
2017-12-30T23:40:56.533Z,1.03
2017-12-30T23:43:24.701Z,0.99
2017-12-30T23:45:52.865Z,0.99
2017-12-30T23:48:21.155Z,0.97
2017-12-30T23:50:49.315Z,1.02
2017-12-30T23:53:17.475Z,0.90
2017-12-30T23:55:46.398Z,0.84
2017-12-30T23:58:14.552Z,0.81
